Time;durP1;ratioP1;P1;durP2;ratioP2;P2;SDS_P1;SDS_P2;PMS_P1;PMS_P2;Temp;Humidity;BMP_temperature;BMP_pressure;BME280_temperature;BME280_humidity;BME280_pressure;Samples;Min_cycle;Max_cycle;Signal;HPM_P1;HPM_P2
2022/01/25 00:09:33;;;;;;;;;;;;;;;-139.48;100.00;61774.03;5015211;28;19928;-72
2022/01/25 00:27:25;;;;;;;;;;;;;;;-139.48;100.00;61774.03;5015203;28;19925;-72
2022/01/25 00:30:27;;;;;;;;;;;;;;;-139.48;100.00;61774.03;5015107;28;19929;-73
2022/01/25 00:33:10;;;;;;;;;;;;;;;-139.48;100.00;61774.03;5014726;28;20040;-72
2022/01/25 00:35:54;;;;;;;;;;;;;;;-139.48;100.00;61774.03;5014711;28;20408;-73
2022/01/25 00:38:39;;;;;;;;;;;;;;;-139.48;100.00;61774.03;5013915;28;19928;-73
2022/01/25 00:41:23;;;;;;;;;;;;;;;-139.48;100.00;61774.03;5000006;28;19967;-72
2022/01/25 00:44:09;;;;;;;;;;;;;;;-139.48;100.00;61774.03;5015176;28;20035;-72
2022/01/25 00:46:53;;;;;;;;;;;;;;;-139.48;100.00;61774.03;5000228;28;20419;-73
2022/01/25 00:49:39;;;;;;;;;;;;;;;-139.48;100.00;61774.03;5014710;28;19964;-73
2022/01/25 00:53:55;;;;;;;;;;;;;;;-139.48;100.00;61774.03;5013345;28;19925;-73
2022/01/25 00:55:36;;;;;;;;;;;;;;;-139.48;100.00;61774.03;5013446;28;19928;-73
2022/01/25 00:58:20;;;;;;;;;;;;;;;-139.48;100.00;61774.03;5013291;28;20008;-72
2022/01/25 01:01:03;;;;;;;;;;;;;;;-139.48;100.00;61774.03;4999570;28;19968;-73
2022/01/25 01:03:48;;;;;;;;;;;;;;;-139.48;100.00;61774.03;5012810;28;19925;-72
2022/01/25 01:06:32;;;;;;;;;;;;;;;-139.48;100.00;61774.03;5013624;28;19924;-71
2022/01/25 01:09:16;;;;;;;;;;;;;;;-139.48;100.00;61774.03;5014677;28;20321;-73
2022/01/25 01:12:11;;;;;;;;;;;;;;;-139.48;100.00;61774.03;5014345;28;20059;-73
2022/01/25 01:15:24;;;;;;;;;;;;;;;-139.48;100.00;61774.03;5012962;28;20400;-73
2022/01/25 01:36:47;;;;;;;;;;;;;;;-139.48;100.00;61774.03;5014252;28;19924;-72
2022/01/25 01:48:30;;;;;;;;;;;;;;;-139.48;100.00;61774.03;5012511;28;19924;-72
2022/01/25 01:51:18;;;;;;;;;;;;;;;-139.48;100.00;61774.03;5012883;28;19925;-72
2022/01/25 01:54:03;;;;;;;;;;;;;;;-139.48;100.00;61774.03;5012390;28;19933;-72
2022/01/25 01:56:47;;;;;;;;;;;;;;;-139.48;100.00;61774.03;5012688;28;19924;-73
2022/01/25 01:59:31;;;;;;;;;;;;;;;-139.48;100.00;61774.03;5012595;28;19967;-72
2022/01/25 02:02:15;;;;;;;;;;;;;;;-139.48;100.00;61774.03;5012830;28;19925;-72
2022/01/25 02:04:59;;;;;;;;;;;;;;;-139.48;100.00;61774.03;5012336;28;19928;-73
2022/01/25 02:07:43;;;;;;;;;;;;;;;-139.48;100.00;61774.03;5012523;28;19931;-72
2022/01/25 02:10:27;;;;;;;;;;;;;;;-139.48;100.00;61774.03;5013605;28;19976;-71
2022/01/25 02:13:11;;;;;;;;;;;;;;;-139.48;100.00;61774.03;5013773;28;19928;-73
2022/01/25 02:15:56;;;;;;;;;;;;;;;-139.48;100.00;61774.03;5016410;28;20284;-73
2022/01/25 02:24:46;;;;;;;;;;;;;;;-139.48;100.00;61774.03;5016380;28;20427;-72
2022/01/25 02:27:30;;;;;;;;;;;;;;;-139.48;100.00;61774.03;5016421;28;19941;-73
2022/01/25 02:30:14;;;;;;;;;;;;;;;-139.48;100.00;61774.03;5002479;28;20409;-73
2022/01/25 02:32:58;;;;;;;;;;;;;;;-139.48;100.00;61774.03;5002343;28;19967;-72
2022/01/25 02:35:42;;;;;;;;;;;;;;;-139.48;100.00;61774.03;5015865;28;19927;-73
2022/01/25 02:38:27;;;;;;;;;;;;;;;-139.48;100.00;61774.03;5016976;28;19923;-72
2022/01/25 02:41:11;;;;;;;;;;;;;;;-139.48;100.00;61774.03;5016191;28;19924;-72
2022/01/25 02:43:56;;;;;;;;;;;;;;;-139.48;100.00;61774.03;5016888;28;20403;-72
2022/01/25 02:49:24;;;;;;;;;;;;;;;-139.48;100.00;61774.03;5015945;28;20380;-72
2022/01/25 02:52:07;;;;;;;;;;;;;;;-139.48;100.00;61774.03;5016501;28;20404;-72
2022/01/25 02:54:52;;;;;;;;;;;;;;;-139.48;100.00;61774.03;5001883;28;19971;-72
2022/01/25 02:57:35;;;;;;;;;;;;;;;-139.48;100.00;61774.03;5015816;28;19991;-73
2022/01/25 03:00:19;;;;;;;;;;;;;;;-139.48;100.00;61774.03;5016630;28;20011;-73
2022/01/25 03:03:03;;;;;;;;;;;;;;;-139.48;100.00;61774.03;5016417;28;19940;-72
2022/01/25 03:05:47;;;;;;;;;;;;;;;-139.48;100.00;61774.03;5015667;28;19986;-72
2022/01/25 03:08:31;;;;;;;;;;;;;;;-139.48;100.00;61774.03;5016615;28;19924;-72
2022/01/25 03:11:17;;;;;;;;;;;;;;;-139.48;100.00;61774.03;5017162;28;19963;-72
2022/01/25 03:14:08;;;;;;;;;;;;;;;-139.48;100.00;61774.03;5015436;28;19979;-73
2022/01/25 03:17:06;;;;;;;;;;;;;;;-139.48;100.00;61774.03;5015405;28;19971;-72
2022/01/25 03:20:02;;;;;;;;;;;;;;;-139.48;100.00;61774.03;5003372;28;19923;-72
2022/01/25 03:22:59;;;;;;;;;;;;;;;-139.48;100.00;61774.03;5015248;28;19979;-72
2022/01/25 03:25:43;;;;;;;;;;;;;;;-139.48;100.00;61774.03;5014922;28;19928;-72
2022/01/25 03:28:27;;;;;;;;;;;;;;;-139.48;100.00;61774.03;5001740;28;19967;-72
2022/01/25 03:31:11;;;;;;;;;;;;;;;-139.48;100.00;61774.03;5016213;28;19935;-72
2022/01/25 03:33:55;;;;;;;;;;;;;;;-139.48;100.00;61774.03;5014926;28;19972;-73
2022/01/25 03:36:39;;;;;;;;;;;;;;;-139.48;100.00;61774.03;5015072;28;19927;-73
2022/01/25 03:39:22;;;;;;;;;;;;;;;-139.48;100.00;61774.03;5015825;28;20308;-73
2022/01/25 03:42:09;;;;;;;;;;;;;;;-139.48;100.00;61774.03;5014875;28;20024;-73
2022/01/25 03:44:55;;;;;;;;;;;;;;;-139.48;100.00;61774.03;5015195;28;19940;-72
2022/01/25 03:47:58;;;;;;;;;;;;;;;-139.48;100.00;61774.03;5001395;28;20231;-73
2022/01/25 03:50:43;;;;;;;;;;;;;;;-139.48;100.00;61774.03;5015880;28;19925;-72
2022/01/25 03:53:27;;;;;;;;;;;;;;;-139.48;100.00;61774.03;5014441;28;20052;-72
2022/01/25 03:56:11;;;;;;;;;;;;;;;-139.48;100.00;61774.03;5015803;28;19923;-72
2022/01/25 03:58:55;;;;;;;;;;;;;;;-139.48;100.00;61774.03;5014623;28;20025;-72
2022/01/25 04:01:39;;;;;;;;;;;;;;;-139.48;100.00;61774.03;5000464;28;19925;-72
2022/01/25 04:04:25;;;;;;;;;;;;;;;-139.48;100.00;61774.03;5015926;28;19973;-72
2022/01/25 04:07:11;;;;;;;;;;;;;;;-139.48;100.00;61774.03;5015286;28;19932;-71
2022/01/25 04:09:55;;;;;;;;;;;;;;;-139.48;100.00;61774.03;5014268;28;20015;-72
2022/01/25 04:12:39;;;;;;;;;;;;;;;-139.48;100.00;61774.03;5015347;28;19967;-72
2022/01/25 04:15:23;;;;;;;;;;;;;;;-139.48;100.00;61774.03;5015277;28;20288;-71
2022/01/25 04:18:32;;;;;;;;;;;;;;;-139.48;100.00;61774.03;5015437;28;19927;-72
2022/01/25 04:21:42;;;;;;;;;;;;;;;-139.48;100.00;61774.03;5014566;28;20427;-72
2022/01/25 04:27:25;;;;;;;;;;;;;;;-139.48;100.00;61774.03;5014421;28;19924;-71
2022/01/25 04:30:10;;;;;;;;;;;;;;;-139.48;100.00;61774.03;5015647;28;19928;-72
2022/01/25 04:33:15;;;;;;;;;;;;;;;-139.48;100.00;61774.03;5014754;28;19967;-72
2022/01/25 04:36:25;;;;;;;;;;;;;;;-139.48;100.00;61774.03;5015283;28;19933;-71
2022/01/25 04:51:31;;;;;;;;;;;;;;;-139.48;100.00;61774.03;5013607;28;19964;-70
2022/01/25 05:00:04;;;;;;;;;;;;;;;-139.48;100.00;61774.03;5013674;28;19924;-72
2022/01/25 05:05:37;;;;;;;;;;;;;;;-139.48;100.00;61774.03;5013703;28;19941;-68
2022/01/25 05:11:34;;;;;;;;;;;;;;;-139.48;100.00;61774.03;5013440;28;19924;-69
2022/01/25 05:14:23;;;;;;;;;;;;;;;-139.48;100.00;61774.03;5014394;28;19928;-69
2022/01/25 05:17:11;;;;;;;;;;;;;;;-139.48;100.00;61774.03;5013298;28;20028;-69
2022/01/25 05:22:39;;;;;;;;;;;;;;;-139.48;100.00;61774.03;5014325;28;19925;-68
2022/01/25 05:25:23;;;;;;;;;;;;;;;-139.48;100.00;61774.03;5013861;28;19967;-69
2022/01/25 05:28:07;;;;;;;;;;;;;;;-139.48;100.00;61774.03;4998947;28;20447;-69
2022/01/25 05:30:51;;;;;;;;;;;;;;;-139.48;100.00;61774.03;5013015;28;20445;-69
2022/01/25 05:33:34;;;;;;;;;;;;;;;-139.48;100.00;61774.03;5012887;28;20420;-69
2022/01/25 05:36:19;;;;;;;;;;;;;;;-139.48;100.00;61774.03;5012845;28;19925;-69
2022/01/25 05:39:09;;;;;;;;;;;;;;;-139.48;100.00;61774.03;5012946;28;19924;-68
2022/01/25 05:44:59;;;;;;;;;;;;;;;-139.48;100.00;61774.03;5012972;28;19936;-70
2022/01/25 05:47:44;;;;;;;;;;;;;;;-139.48;100.00;61774.03;5013815;28;20400;-69
2022/01/25 05:50:28;;;;;;;;;;;;;;;-139.48;100.00;61774.03;5012665;28;19972;-69
2022/01/25 05:53:11;;;;;;;;;;;;;;;-139.48;100.00;61774.03;5012416;28;19924;-69
2022/01/25 05:55:55;;;;;;;;;;;;;;;-139.48;100.00;61774.03;4998685;28;19929;-70
2022/01/25 05:58:39;;;;;;;;;;;;;;;-139.48;100.00;61774.03;5012392;28;20063;-70
2022/01/25 06:01:23;;;;;;;;;;;;;;;-139.48;100.00;61774.03;5012373;28;19925;-70
2022/01/25 06:04:07;;;;;;;;;;;;;;;-139.48;100.00;61774.03;5013349;28;19963;-70
2022/01/25 06:06:51;;;;;;;;;;;;;;;-139.48;100.00;61774.03;5012241;28;20273;-70
2022/01/25 06:09:35;;;;;;;;;;;;;;;-139.48;100.00;61774.03;5013503;28;19924;-70
2022/01/25 06:12:19;;;;;;;;;;;;;;;-139.48;100.00;61774.03;5012052;28;20408;-70
2022/01/25 06:15:03;;;;;;;;;;;;;;;-139.48;100.00;61774.03;5012417;28;20446;-69
2022/01/25 06:17:47;;;;;;;;;;;;;;;-139.48;100.00;61774.03;4998176;28;19924;-69
2022/01/25 06:20:32;;;;;;;;;;;;;;;-139.48;100.00;61774.03;5013740;28;20029;-70
2022/01/25 06:23:16;;;;;;;;;;;;;;;-139.48;100.00;61774.03;5012217;28;20016;-69
2022/01/25 06:26:00;;;;;;;;;;;;;;;-139.48;100.00;61774.03;5013074;28;19925;-70
2022/01/25 06:28:44;;;;;;;;;;;;;;;-139.48;100.00;61774.03;4998545;28;20292;-70
2022/01/25 06:31:30;;;;;;;;;;;;;;;-139.48;100.00;61774.03;5012953;28;19924;-70
2022/01/25 06:34:14;;;;;;;;;;;;;;;-139.48;100.00;61774.03;5012521;28;20375;-70
2022/01/25 06:36:58;;;;;;;;;;;;;;;-139.48;100.00;61774.03;5012076;28;19925;-70
2022/01/25 06:39:42;;;;;;;;;;;;;;;-139.48;100.00;61774.03;5012263;28;20289;-69
2022/01/25 06:42:29;;;;;;;;;;;;;;;-139.48;100.00;61774.03;5011706;28;19972;-69
2022/01/25 06:45:17;;;;;;;;;;;;;;;-139.48;100.00;61774.03;5012184;28;19929;-70
2022/01/25 06:48:00;;;;;;;;;;;;;;;-139.48;100.00;61774.03;5012854;28;20039;-70
2022/01/25 06:50:44;;;;;;;;;;;;;;;-139.48;100.00;61774.03;4997963;28;19967;-69
2022/01/25 06:53:28;;;;;;;;;;;;;;;-139.48;100.00;61774.03;5012075;28;20384;-70
2022/01/25 06:56:12;;;;;;;;;;;;;;;-139.48;100.00;61774.03;5011913;28;19929;-70
2022/01/25 06:58:56;;;;;;;;;;;;;;;-139.48;100.00;61774.03;5011772;28;20411;-71
2022/01/25 07:01:40;;;;;;;;;;;;;;;-139.48;100.00;61774.03;5014461;28;19949;-70
2022/01/25 07:04:24;;;;;;;;;;;;;;;-139.48;100.00;61774.03;5015537;28;19987;-68
2022/01/25 07:07:08;;;;;;;;;;;;;;;-139.48;100.00;61774.03;5001548;28;19924;-68
2022/01/25 07:09:52;;;;;;;;;;;;;;;-139.48;100.00;61774.03;5016403;28;19923;-68
2022/01/25 07:12:35;;;;;;;;;;;;;;;-139.48;100.00;61774.03;5016683;28;20015;-69
2022/01/25 07:15:19;;;;;;;;;;;;;;;-139.48;100.00;61774.03;5016763;28;20133;-69
2022/01/25 07:18:03;;;;;;;;;;;;;;;-139.48;100.00;61774.03;5015861;28;20412;-69
2022/01/25 07:20:47;;;;;;;;;;;;;;;-139.48;100.00;61774.03;5001560;28;20293;-68
2022/01/25 07:23:31;;;;;;;;;;;;;;;-139.48;100.00;61774.03;5016414;28;19967;-69
2022/01/25 07:26:15;;;;;;;;;;;;;;;-139.48;100.00;61774.03;5015174;28;19924;-68
2022/01/25 07:28:59;;;;;;;;;;;;;;;-139.48;100.00;61774.03;5014905;28;20303;-68
2022/01/25 07:31:44;;;;;;;;;;;;;;;-139.48;100.00;61774.03;5016272;28;20017;-68
2022/01/25 07:34:28;;;;;;;;;;;;;;;-139.48;100.00;61774.03;5014696;28;20060;-69
2022/01/25 07:37:12;;;;;;;;;;;;;;;-139.48;100.00;61774.03;5015143;28;19925;-69
2022/01/25 07:39:56;;;;;;;;;;;;;;;-139.48;100.00;61774.03;5015128;28;19924;-69
2022/01/25 07:42:41;;;;;;;;;;;;;;;-139.48;100.00;61774.03;5014737;28;19924;-69
2022/01/25 07:45:25;;;;;;;;;;;;;;;-139.48;100.00;61774.03;5014794;28;19963;-69
2022/01/25 07:48:10;;;;;;;;;;;;;;;-139.48;100.00;61774.03;5000881;28;20278;-69
2022/01/25 07:50:54;;;;;;;;;;;;;;;-139.48;100.00;61774.03;5015981;28;19943;-69
2022/01/25 07:53:38;;;;;;;;;;;;;;;-139.48;100.00;61774.03;5000799;28;19924;-69
2022/01/25 07:56:21;;;;;;;;;;;;;;;-139.48;100.00;61774.03;5014899;28;20063;-69
2022/01/25 07:59:05;;;;;;;;;;;;;;;-139.48;100.00;61774.03;5015964;28;19925;-68
2022/01/25 08:01:50;;;;;;;;;;;;;;;-139.48;100.00;61774.03;5014440;28;20285;-69
2022/01/25 08:04:34;;;;;;;;;;;;;;;-139.48;100.00;61774.03;5015665;28;20021;-69
2022/01/25 08:07:18;;;;;;;;;;;;;;;-139.48;100.00;61774.03;5014192;28;19924;-68
2022/01/25 08:10:02;;;;;;;;;;;;;;;-139.48;100.00;61774.03;5000458;28;19939;-69
2022/01/25 08:12:47;;;;;;;;;;;;;;;-139.48;100.00;61774.03;5014051;28;19963;-68
2022/01/25 08:15:31;;;;;;;;;;;;;;;-139.48;100.00;61774.03;5014414;28;19929;-68
2022/01/25 08:18:14;;;;;;;;;;;;;;;-139.48;100.00;61774.03;5014231;28;19925;-68
2022/01/25 08:20:58;;;;;;;;;;;;;;;-139.48;100.00;61774.03;5014077;28;19924;-68
2022/01/25 08:23:42;;;;;;;;;;;;;;;-139.48;100.00;61774.03;5014354;28;19925;-69
2022/01/25 08:26:26;;;;;;;;;;;;;;;-139.48;100.00;61774.03;5013848;28;19923;-68
2022/01/25 08:29:10;;;;;;;;;;;;;;;-139.48;100.00;61774.03;5015212;28;20419;-69
2022/01/25 08:31:54;;;;;;;;;;;;;;;-139.48;100.00;61774.03;5014856;28;19928;-68
2022/01/25 08:34:38;;;;;;;;;;;;;;;-139.48;100.00;61774.03;5014786;28;20016;-69
2022/01/25 08:37:24;;;;;;;;;;;;;;;-139.48;100.00;61774.03;5013186;28;20145;-69
2022/01/25 08:40:08;;;;;;;;;;;;;;;-139.48;100.00;61774.03;5014253;28;20098;-68
2022/01/25 08:42:52;;;;;;;;;;;;;;;-139.48;100.00;61774.03;5014532;28;19979;-69
2022/01/25 08:45:37;;;;;;;;;;;;;;;-139.48;100.00;61774.03;5013561;28;19928;-68
2022/01/25 08:48:20;;;;;;;;;;;;;;;-139.48;100.00;61774.03;5000082;28;20349;-68
2022/01/25 08:51:05;;;;;;;;;;;;;;;-139.48;100.00;61774.03;5013595;28;19967;-69
2022/01/25 08:53:49;;;;;;;;;;;;;;;-139.48;100.00;61774.03;5014328;28;19924;-67
2022/01/25 08:56:32;;;;;;;;;;;;;;;-139.48;100.00;61774.03;5013359;28;19983;-68
2022/01/25 08:59:16;;;;;;;;;;;;;;;-139.48;100.00;61774.03;5014401;28;19925;-67
2022/01/25 09:02:00;;;;;;;;;;;;;;;-139.48;100.00;61774.03;5014312;28;20301;-68
2022/01/25 09:04:44;;;;;;;;;;;;;;;-139.48;100.00;61774.03;5013527;28;20249;-68
2022/01/25 09:07:28;;;;;;;;;;;;;;;-139.48;100.00;61774.03;5014831;28;19924;-68
2022/01/25 09:10:12;;;;;;;;;;;;;;;-139.48;100.00;61774.03;5014404;28;19924;-68
2022/01/25 09:12:56;;;;;;;;;;;;;;;-139.48;100.00;61774.03;5014056;28;19924;-68
2022/01/25 09:15:40;;;;;;;;;;;;;;;-139.48;100.00;61774.03;5013070;28;20015;-68
2022/01/25 09:18:24;;;;;;;;;;;;;;;-139.48;100.00;61774.03;4999573;28;20411;-69
2022/01/25 09:21:07;;;;;;;;;;;;;;;-139.48;100.00;61774.03;5013190;28;19980;-69
2022/01/25 09:23:51;;;;;;;;;;;;;;;-139.48;100.00;61774.03;5013701;28;19967;-68
2022/01/25 09:26:36;;;;;;;;;;;;;;;-139.48;100.00;61774.03;5013932;28;19924;-68
2022/01/25 09:29:19;;;;;;;;;;;;;;;-139.48;100.00;61774.03;5013029;28;19940;-68
2022/01/25 09:32:04;;;;;;;;;;;;;;;-139.48;100.00;61774.03;5012845;28;19927;-67
2022/01/25 09:34:48;;;;;;;;;;;;;;;-139.48;100.00;61774.03;5012641;28;19971;-68
2022/01/25 09:37:32;;;;;;;;;;;;;;;-139.48;100.00;61774.03;5013963;28;20420;-68
2022/01/25 09:40:16;;;;;;;;;;;;;;;-139.48;100.00;61774.03;4998841;28;19940;-68
2022/01/25 09:43:00;;;;;;;;;;;;;;;-139.48;100.00;61774.03;5012580;28;20027;-68
2022/01/25 09:45:45;;;;;;;;;;;;;;;-139.48;100.00;61774.03;5012951;28;19983;-68
2022/01/25 09:48:29;;;;;;;;;;;;;;;-139.48;100.00;61774.03;5013575;28;19925;-68
2022/01/25 09:51:13;;;;;;;;;;;;;;;-139.48;100.00;61774.03;5012733;28;19925;-69
2022/01/25 09:53:57;;;;;;;;;;;;;;;-139.48;100.00;61774.03;5012453;28;19923;-68
2022/01/25 09:56:41;;;;;;;;;;;;;;;-139.48;100.00;61774.03;5012525;28;20013;-69
2022/01/25 09:59:26;;;;;;;;;;;;;;;-139.48;100.00;61774.03;4998636;28;20348;-68
2022/01/25 10:02:10;;;;;;;;;;;;;;;-139.48;100.00;61774.03;5014007;28;20288;-67
2022/01/25 10:04:54;;;;;;;;;;;;;;;-139.48;100.00;61774.03;4999095;28;20011;-68
2022/01/25 10:07:38;;;;;;;;;;;;;;;-139.48;100.00;61774.03;5013670;28;20403;-68
2022/01/25 10:10:22;;;;;;;;;;;;;;;-139.48;100.00;61774.03;5012835;28;19925;-68
2022/01/25 10:13:12;;;;;;;;;;;;;;;-139.48;100.00;61774.03;5012666;28;19924;-68
2022/01/25 10:16:02;;;;;;;;;;;;;;;-139.48;100.00;61774.03;5013627;28;19976;-68
2022/01/25 10:18:47;;;;;;;;;;;;;;;-139.48;100.00;61774.03;5013591;28;19923;-68
2022/01/25 10:21:32;;;;;;;;;;;;;;;-139.48;100.00;61774.03;4998934;28;19983;-69
2022/01/25 10:24:19;;;;;;;;;;;;;;;-139.48;100.00;61774.03;5013683;28;20439;-69
2022/01/25 10:27:03;;;;;;;;;;;;;;;-139.48;100.00;61774.03;5012455;28;19925;-68
2022/01/25 10:29:47;;;;;;;;;;;;;;;-139.48;100.00;61774.03;4998920;28;19944;-68
2022/01/25 10:32:31;;;;;;;;;;;;;;;-139.48;100.00;61774.03;5012922;28;19939;-68
2022/01/25 10:35:16;;;;;;;;;;;;;;;-139.48;100.00;61774.03;5012535;28;19976;-68
2022/01/25 10:38:00;;;;;;;;;;;;;;;-139.48;100.00;61774.03;5017618;28;19940;-68
2022/01/25 10:40:44;;;;;;;;;;;;;;;-139.48;100.00;61774.03;5017765;28;19943;-67
2022/01/25 10:43:28;;;;;;;;;;;;;;;-139.48;100.00;61774.03;5016741;28;19996;-68
2022/01/25 10:46:16;;;;;;;;;;;;;;;-139.48;100.00;61774.03;5016656;28;19940;-68
2022/01/25 10:49:04;;;;;;;;;;;;;;;-139.48;100.00;61774.03;5016610;28;19924;-68
2022/01/25 10:51:49;;;;;;;;;;;;;;;-139.48;100.00;61774.03;5017333;28;19991;-68
2022/01/25 10:54:37;;;;;;;;;;;;;;;-139.48;100.00;61774.03;5016079;28;19928;-68
2022/01/25 10:57:23;;;;;;;;;;;;;;;-139.48;100.00;61774.03;5002595;28;19964;-68
2022/01/25 11:00:09;;;;;;;;;;;;;;;-139.48;100.00;61774.03;5016311;28;19977;-68
2022/01/25 11:02:55;;;;;;;;;;;;;;;-139.48;100.00;61774.03;5014844;28;19924;-68
2022/01/25 11:05:40;;;;;;;;;;;;;;;-139.48;100.00;61774.03;4980537;22;1784807;-73
2022/01/25 11:08:25;;;;;;;;;;;;;;;-139.48;100.00;61774.03;5015953;28;20308;-72
2022/01/25 11:11:11;;;;;;;;;;;;;;;-139.48;100.00;61774.03;5016644;28;19924;-72
2022/01/25 11:13:58;;;;;;;;;;;;;;;-139.48;100.00;61774.03;5016194;28;19924;-73
2022/01/25 11:16:43;;;;;;;;;;;;;;;-139.48;100.00;61774.03;5016476;28;19924;-71
2022/01/25 11:19:27;;;;;;;;;;;;;;;-139.48;100.00;61774.03;5016254;28;19925;-73
2022/01/25 11:22:12;;;;;;;;;;;;;;;-139.48;100.00;61774.03;5015413;28;20012;-74
2022/01/25 11:24:57;;;;;;;;;;;;;;;-139.48;100.00;61774.03;5015006;28;20404;-74
2022/01/25 11:27:42;;;;;;;;;;;;;;;-139.48;100.00;61774.03;5015018;28;20395;-72
2022/01/25 11:30:25;;;;;;;;;;;;;;;-139.48;100.00;61774.03;5015238;28;19928;-73
2022/01/25 11:33:09;;;;;;;;;;;;;;;-139.48;100.00;61774.03;5015261;28;19968;-73
2022/01/25 11:35:53;;;;;;;;;;;;;;;-139.48;100.00;61774.03;5014827;28;19988;-73
2022/01/25 11:38:42;;;;;;;;;;;;;;;-139.48;100.00;61774.03;5015187;28;19940;-73
2022/01/25 11:41:26;;;;;;;;;;;;;;;-139.48;100.00;61774.03;5001634;28;20055;-73
2022/01/25 11:44:11;;;;;;;;;;;;;;;-139.48;100.00;61774.03;5015043;28;19924;-73
2022/01/25 11:46:58;;;;;;;;;;;;;;;-139.48;100.00;61774.03;5015562;28;19924;-73
2022/01/25 11:49:54;;;;;;;;;;;;;;;-139.48;100.00;61774.03;5001054;28;20016;-73
2022/01/25 11:52:48;;;;;;;;;;;;;;;-139.48;100.00;61774.03;5015862;28;19991;-73
2022/01/25 11:55:48;;;;;;;;;;;;;;;-139.48;100.00;61774.03;5015582;28;20362;-73
2022/01/25 11:58:32;;;;;;;;;;;;;;;-139.48;100.00;61774.03;5015756;28;19975;-73
2022/01/25 12:01:17;;;;;;;;;;;;;;;-139.48;100.00;61774.03;5001131;28;20253;-73
2022/01/25 12:04:02;;;;;;;;;;;;;;;-139.48;100.00;61774.03;5000546;28;19971;-73
2022/01/25 12:06:59;;;;;;;;;;;;;;;-139.48;100.00;61774.03;5015555;28;19920;-73
2022/01/25 12:09:51;;;;;;;;;;;;;;;-139.48;100.00;61774.03;5015504;28;20007;-73
2022/01/25 12:12:35;;;;;;;;;;;;;;;-139.48;100.00;61774.03;5014448;28;19924;-73
2022/01/25 12:15:22;;;;;;;;;;;;;;;-139.48;100.00;61774.03;5014233;28;19928;-73
2022/01/25 12:18:08;;;;;;;;;;;;;;;-139.48;100.00;61774.03;5015621;28;19927;-73
2022/01/25 12:20:52;;;;;;;;;;;;;;;-139.48;100.00;61774.03;5014342;28;20028;-73
2022/01/25 12:23:44;;;;;;;;;;;;;;;-139.48;100.00;61774.03;5015081;28;19931;-73
2022/01/25 12:26:54;;;;;;;;;;;;;;;-139.48;100.00;61774.03;5014542;28;19924;-73
2022/01/25 12:29:57;;;;;;;;;;;;;;;-139.48;100.00;61774.03;5014842;28;19924;-73
2022/01/25 12:33:02;;;;;;;;;;;;;;;-139.48;100.00;61774.03;5015043;28;20390;-73
2022/01/25 12:35:47;;;;;;;;;;;;;;;-139.48;100.00;61774.03;5014699;28;19971;-73
2022/01/25 12:38:44;;;;;;;;;;;;;;;-139.48;100.00;61774.03;5014050;28;20000;-73
2022/01/25 12:41:31;;;;;;;;;;;;;;;-139.48;100.00;61774.03;5013669;28;19924;-73
2022/01/25 12:44:15;;;;;;;;;;;;;;;-139.48;100.00;61774.03;5014538;28;20016;-73
2022/01/25 12:46:59;;;;;;;;;;;;;;;-139.48;100.00;61774.03;5013559;28;19948;-74
2022/01/25 12:49:43;;;;;;;;;;;;;;;-139.48;100.00;61774.03;5013777;28;20396;-73
2022/01/25 12:52:27;;;;;;;;;;;;;;;-139.48;100.00;61774.03;5013480;28;19964;-72
2022/01/25 12:55:12;;;;;;;;;;;;;;;-139.48;100.00;61774.03;5013413;28;20016;-73
2022/01/25 12:57:56;;;;;;;;;;;;;;;-139.48;100.00;61774.03;5013641;28;19929;-72
2022/01/25 13:00:42;;;;;;;;;;;;;;;-139.48;100.00;61774.03;4999472;28;19924;-72
2022/01/25 13:03:30;;;;;;;;;;;;;;;-139.48;100.00;61774.03;5014495;28;19971;-74
2022/01/25 13:06:18;;;;;;;;;;;;;;;-139.48;100.00;61774.03;4999222;28;19925;-72
2022/01/25 13:09:19;;;;;;;;;;;;;;;-139.48;100.00;61774.03;5014419;28;20004;-71
2022/01/25 13:14:51;;;;;;;;;;;;;;;-139.48;100.00;61774.03;5013202;28;19968;-73
2022/01/25 13:17:35;;;;;;;;;;;;;;;-139.48;100.00;61774.03;5014027;28;19924;-71
2022/01/25 13:20:22;;;;;;;;;;;;;;;-139.48;100.00;61774.03;5013232;28;19972;-73
2022/01/25 13:23:06;;;;;;;;;;;;;;;-139.48;100.00;61774.03;5014274;28;19967;-73
2022/01/25 13:25:55;;;;;;;;;;;;;;;-139.48;100.00;61774.03;5013854;28;19924;-73
2022/01/25 13:31:29;;;;;;;;;;;;;;;-139.48;100.00;61774.03;5013296;28;19941;-73
2022/01/25 13:34:13;;;;;;;;;;;;;;;-139.48;100.00;61774.03;5012856;28;19928;-73
2022/01/25 13:36:57;;;;;;;;;;;;;;;-139.48;100.00;61774.03;5013805;28;19949;-73
2022/01/25 13:39:41;;;;;;;;;;;;;;;-139.48;100.00;61774.03;5012937;28;19925;-73
2022/01/25 13:42:30;;;;;;;;;;;;;;;-139.48;100.00;61774.03;5013894;28;20336;-73
2022/01/25 13:48:22;;;;;;;;;;;;;;;-139.48;100.00;61774.03;5013098;28;19946;-74
2022/01/25 13:51:07;;;;;;;;;;;;;;;-139.48;100.00;61774.03;5012813;28;19928;-73
2022/01/25 13:53:58;;;;;;;;;;;;;;;-139.48;100.00;61774.03;5013504;28;19985;-73
2022/01/25 13:56:42;;;;;;;;;;;;;;;-139.48;100.00;61774.03;5013044;28;19992;-71
2022/01/25 13:59:26;;;;;;;;;;;;;;;-139.48;100.00;61774.03;5012404;28;20028;-73
2022/01/25 14:02:10;;;;;;;;;;;;;;;-139.48;100.00;61774.03;5013613;28;20372;-73
2022/01/25 14:05:00;;;;;;;;;;;;;;;-139.48;100.00;61774.03;4998285;28;20012;-72
2022/01/25 14:07:49;;;;;;;;;;;;;;;-139.48;100.00;61774.03;5013608;28;19924;-73
2022/01/25 14:10:32;;;;;;;;;;;;;;;-139.48;100.00;61774.03;5011374;28;20274;-73
2022/01/25 14:25:37;;;;;;;;;;;;;;;-139.48;100.00;61774.03;5011660;28;19929;-73
2022/01/25 14:28:24;;;;;;;;;;;;;;;-139.48;100.00;61774.03;5012117;28;19963;-73
2022/01/25 14:31:19;;;;;;;;;;;;;;;-139.48;100.00;61774.03;5012045;28;19967;-73
2022/01/25 14:34:05;;;;;;;;;;;;;;;-139.48;100.00;61774.03;5013163;28;19968;-73
2022/01/25 14:36:50;;;;;;;;;;;;;;;-139.48;100.00;61774.03;5013245;28;20380;-73
2022/01/25 14:39:33;;;;;;;;;;;;;;;-139.48;100.00;61774.03;5012260;28;19925;-73
2022/01/25 14:42:17;;;;;;;;;;;;;;;-139.48;100.00;61774.03;5012211;28;19924;-73
2022/01/25 14:45:06;;;;;;;;;;;;;;;-139.48;100.00;61774.03;4997984;28;19924;-73
2022/01/25 14:47:53;;;;;;;;;;;;;;;-139.48;100.00;61774.03;5013092;28;19925;-73
2022/01/25 14:50:36;;;;;;;;;;;;;;;-139.48;100.00;61774.03;5012893;28;19929;-73
2022/01/25 14:53:20;;;;;;;;;;;;;;;-139.48;100.00;61774.03;5013096;28;19968;-73
2022/01/25 14:56:05;;;;;;;;;;;;;;;-139.48;100.00;61774.03;5011940;28;19928;-73
2022/01/25 15:01:36;;;;;;;;;;;;;;;-139.48;100.00;61774.03;5012990;28;19944;-72
2022/01/25 15:04:20;;;;;;;;;;;;;;;-139.48;100.00;61774.03;5012803;28;19967;-72
2022/01/25 15:07:08;;;;;;;;;;;;;;;-139.48;100.00;61774.03;5011753;28;19959;-74
2022/01/25 15:09:59;;;;;;;;;;;;;;;-139.48;100.00;61774.03;5011757;28;20372;-72
2022/01/25 15:12:45;;;;;;;;;;;;;;;-139.48;100.00;61774.03;5011746;28;19971;-73
2022/01/25 15:15:45;;;;;;;;;;;;;;;-139.48;100.00;61774.03;5011723;28;19928;-73
2022/01/25 15:18:31;;;;;;;;;;;;;;;-139.48;100.00;61774.03;5011776;28;20018;-72
2022/01/25 15:21:15;;;;;;;;;;;;;;;-139.48;100.00;61774.03;5011659;28;19925;-73
2022/01/25 15:23:59;;;;;;;;;;;;;;;-139.48;100.00;61774.03;5015050;28;19925;-73
2022/01/25 15:26:46;;;;;;;;;;;;;;;-139.48;100.00;61774.03;5015281;28;19921;-72
2022/01/25 15:29:30;;;;;;;;;;;;;;;-139.48;100.00;61774.03;5016359;28;19924;-73
2022/01/25 15:32:14;;;;;;;;;;;;;;;-139.48;100.00;61774.03;5016035;28;19980;-73
2022/01/25 15:34:58;;;;;;;;;;;;;;;-139.48;100.00;61774.03;5015800;28;19927;-73
2022/01/25 15:37:44;;;;;;;;;;;;;;;-139.48;100.00;61774.03;5015256;28;19925;-73
2022/01/25 15:40:29;;;;;;;;;;;;;;;-139.48;100.00;61774.03;5001269;28;19924;-73
2022/01/25 15:43:13;;;;;;;;;;;;;;;-139.48;100.00;61774.03;5015075;28;19968;-73
2022/01/25 15:46:05;;;;;;;;;;;;;;;-139.48;100.00;61774.03;5015718;28;20020;-73
2022/01/25 15:48:49;;;;;;;;;;;;;;;-139.48;100.00;61774.03;5015926;28;19927;-73